sensor_id;sensor_type;location;lat;lon;timestamp;temperature;humidity
316;DHT22;14128;48.686;9.738;2023-05-18T00:00:41;2.70;99.90
316;DHT22;14128;48.686;9.738;2023-05-18T00:03:09;2.70;99.90
316;DHT22;14128;48.686;9.738;2023-05-18T00:05:36;2.60;99.90
316;DHT22;14128;48.686;9.738;2023-05-18T00:08:04;2.60;99.90
316;DHT22;14128;48.686;9.738;2023-05-18T00:10:31;2.60;99.90
316;DHT22;14128;48.686;9.738;2023-05-18T00:12:58;2.60;99.90
316;DHT22;14128;48.686;9.738;2023-05-18T00:15:25;2.50;99.90
316;DHT22;14128;48.686;9.738;2023-05-18T00:17:51;2.50;99.90
316;DHT22;14128;48.686;9.738;2023-05-18T00:20:18;2.40;99.90
316;DHT22;14128;48.686;9.738;2023-05-18T00:22:46;2.40;99.90
316;DHT22;14128;48.686;9.738;2023-05-18T00:25:16;2.40;99.90
316;DHT22;14128;48.686;9.738;2023-05-18T00:27:43;2.40;99.90
316;DHT22;14128;48.686;9.738;2023-05-18T00:30:11;2.40;99.90
316;DHT22;14128;48.686;9.738;2023-05-18T00:32:38;2.40;99.90
316;DHT22;14128;48.686;9.738;2023-05-18T00:35:05;2.40;99.90
316;DHT22;14128;48.686;9.738;2023-05-18T00:37:32;2.40;99.90
316;DHT22;14128;48.686;9.738;2023-05-18T00:39:59;2.40;99.90
316;DHT22;14128;48.686;9.738;2023-05-18T00:42:27;2.40;99.90
316;DHT22;14128;48.686;9.738;2023-05-18T00:44:54;2.30;99.90
316;DHT22;14128;48.686;9.738;2023-05-18T00:47:20;2.30;99.90
316;DHT22;14128;48.686;9.738;2023-05-18T00:49:47;2.30;99.90
316;DHT22;14128;48.686;9.738;2023-05-18T00:52:15;2.30;99.90
316;DHT22;14128;48.686;9.738;2023-05-18T00:54:42;2.30;99.90
316;DHT22;14128;48.686;9.738;2023-05-18T00:57:09;2.30;99.90
316;DHT22;14128;48.686;9.738;2023-05-18T00:59:38;2.30;99.90
316;DHT22;14128;48.686;9.738;2023-05-18T01:02:05;2.20;99.90
316;DHT22;14128;48.686;9.738;2023-05-18T01:04:34;2.20;99.90
316;DHT22;14128;48.686;9.738;2023-05-18T01:07:02;2.20;99.90
316;DHT22;14128;48.686;9.738;2023-05-18T01:09:31;2.10;99.90
316;DHT22;14128;48.686;9.738;2023-05-18T01:12:05;2.10;99.90
316;DHT22;14128;48.686;9.738;2023-05-18T01:14:39;2.10;99.90
316;DHT22;14128;48.686;9.738;2023-05-18T01:17:19;2.10;99.90
316;DHT22;14128;48.686;9.738;2023-05-18T01:20:03;2.10;99.90
316;DHT22;14128;48.686;9.738;2023-05-18T01:22:39;2.10;99.90
316;DHT22;14128;48.686;9.738;2023-05-18T01:25:17;2.10;99.90
316;DHT22;14128;48.686;9.738;2023-05-18T01:27:50;2.10;99.90
316;DHT22;14128;48.686;9.738;2023-05-18T01:30:21;2.10;99.90
316;DHT22;14128;48.686;9.738;2023-05-18T01:32:48;2.10;99.90
316;DHT22;14128;48.686;9.738;2023-05-18T01:35:15;2.10;99.90
316;DHT22;14128;48.686;9.738;2023-05-18T01:37:42;2.10;99.90
316;DHT22;14128;48.686;9.738;2023-05-18T01:40:09;2.00;99.90
316;DHT22;14128;48.686;9.738;2023-05-18T01:42:40;2.00;99.90
316;DHT22;14128;48.686;9.738;2023-05-18T01:45:17;2.00;99.90
316;DHT22;14128;48.686;9.738;2023-05-18T01:47:47;1.90;99.90
316;DHT22;14128;48.686;9.738;2023-05-18T01:50:17;1.90;99.90
316;DHT22;14128;48.686;9.738;2023-05-18T01:52:52;1.90;99.90
316;DHT22;14128;48.686;9.738;2023-05-18T01:55:19;1.90;99.90
316;DHT22;14128;48.686;9.738;2023-05-18T01:57:48;1.90;99.90
316;DHT22;14128;48.686;9.738;2023-05-18T02:00:19;1.90;99.90
316;DHT22;14128;48.686;9.738;2023-05-18T02:02:47;1.90;99.90
316;DHT22;14128;48.686;9.738;2023-05-18T02:05:15;1.80;99.90
316;DHT22;14128;48.686;9.738;2023-05-18T02:07:42;1.80;99.90
316;DHT22;14128;48.686;9.738;2023-05-18T02:10:12;1.80;99.90
316;DHT22;14128;48.686;9.738;2023-05-18T02:12:39;1.80;99.90
316;DHT22;14128;48.686;9.738;2023-05-18T02:15:07;1.70;99.90
316;DHT22;14128;48.686;9.738;2023-05-18T02:17:35;1.60;99.90
316;DHT22;14128;48.686;9.738;2023-05-18T02:20:04;1.60;99.90
316;DHT22;14128;48.686;9.738;2023-05-18T02:22:32;1.60;99.90
316;DHT22;14128;48.686;9.738;2023-05-18T02:24:59;1.60;99.90
316;DHT22;14128;48.686;9.738;2023-05-18T02:27:26;1.60;99.90
316;DHT22;14128;48.686;9.738;2023-05-18T02:29:53;1.60;99.90
316;DHT22;14128;48.686;9.738;2023-05-18T02:32:19;1.60;99.90
316;DHT22;14128;48.686;9.738;2023-05-18T02:34:51;1.60;99.90
316;DHT22;14128;48.686;9.738;2023-05-18T02:37:18;1.60;99.90
316;DHT22;14128;48.686;9.738;2023-05-18T02:39:47;1.60;99.90
316;DHT22;14128;48.686;9.738;2023-05-18T02:42:14;1.60;99.90
316;DHT22;14128;48.686;9.738;2023-05-18T02:44:41;1.70;99.90
316;DHT22;14128;48.686;9.738;2023-05-18T02:47:08;1.60;99.90
316;DHT22;14128;48.686;9.738;2023-05-18T02:49:35;1.60;99.90
316;DHT22;14128;48.686;9.738;2023-05-18T02:52:03;1.60;99.90
316;DHT22;14128;48.686;9.738;2023-05-18T02:54:30;1.60;99.90
316;DHT22;14128;48.686;9.738;2023-05-18T02:56:57;1.50;99.90
316;DHT22;14128;48.686;9.738;2023-05-18T02:59:24;1.50;99.90
316;DHT22;14128;48.686;9.738;2023-05-18T03:01:50;1.50;99.90
316;DHT22;14128;48.686;9.738;2023-05-18T03:04:17;1.40;99.90
316;DHT22;14128;48.686;9.738;2023-05-18T03:06:44;1.50;99.90
316;DHT22;14128;48.686;9.738;2023-05-18T03:09:13;1.50;99.90
316;DHT22;14128;48.686;9.738;2023-05-18T03:11:40;1.50;99.90
316;DHT22;14128;48.686;9.738;2023-05-18T03:14:07;1.50;99.90
316;DHT22;14128;48.686;9.738;2023-05-18T03:16:33;1.40;99.90
316;DHT22;14128;48.686;9.738;2023-05-18T03:19:03;1.50;99.90
316;DHT22;14128;48.686;9.738;2023-05-18T03:21:29;1.50;99.90
316;DHT22;14128;48.686;9.738;2023-05-18T03:23:58;1.70;99.90
316;DHT22;14128;48.686;9.738;2023-05-18T03:26:26;1.70;99.90
316;DHT22;14128;48.686;9.738;2023-05-18T03:28:55;1.70;99.90
316;DHT22;14128;48.686;9.738;2023-05-18T03:31:22;1.70;99.90
316;DHT22;14128;48.686;9.738;2023-05-18T03:33:49;1.70;99.90
316;DHT22;14128;48.686;9.738;2023-05-18T03:36:15;1.70;99.90
316;DHT22;14128;48.686;9.738;2023-05-18T03:38:42;1.60;99.90
316;DHT22;14128;48.686;9.738;2023-05-18T03:41:10;1.60;99.90
316;DHT22;14128;48.686;9.738;2023-05-18T03:43:38;1.50;99.90
316;DHT22;14128;48.686;9.738;2023-05-18T03:46:05;1.50;99.90
316;DHT22;14128;48.686;9.738;2023-05-18T03:48:31;1.50;99.90
316;DHT22;14128;48.686;9.738;2023-05-18T03:50:58;1.40;99.90
316;DHT22;14128;48.686;9.738;2023-05-18T03:53:25;1.40;99.90
316;DHT22;14128;48.686;9.738;2023-05-18T03:55:53;1.40;99.90
316;DHT22;14128;48.686;9.738;2023-05-18T03:58:21;1.30;99.90
316;DHT22;14128;48.686;9.738;2023-05-18T04:00:49;1.40;99.90
316;DHT22;14128;48.686;9.738;2023-05-18T04:03:17;1.40;99.90
316;DHT22;14128;48.686;9.738;2023-05-18T04:05:45;1.40;99.90
316;DHT22;14128;48.686;9.738;2023-05-18T04:08:14;1.50;99.90
316;DHT22;14128;48.686;9.738;2023-05-18T04:10:41;1.60;99.90
316;DHT22;14128;48.686;9.738;2023-05-18T04:13:08;1.60;99.90
316;DHT22;14128;48.686;9.738;2023-05-18T04:15:35;1.70;99.90
316;DHT22;14128;48.686;9.738;2023-05-18T04:18:03;1.70;99.90
316;DHT22;14128;48.686;9.738;2023-05-18T04:20:31;1.80;99.90
316;DHT22;14128;48.686;9.738;2023-05-18T04:22:57;1.80;99.90
316;DHT22;14128;48.686;9.738;2023-05-18T04:25:24;1.90;99.90
316;DHT22;14128;48.686;9.738;2023-05-18T04:27:52;1.90;99.90
316;DHT22;14128;48.686;9.738;2023-05-18T04:30:20;2.00;99.90
316;DHT22;14128;48.686;9.738;2023-05-18T04:32:48;2.00;99.90
316;DHT22;14128;48.686;9.738;2023-05-18T04:35:16;2.00;99.90
316;DHT22;14128;48.686;9.738;2023-05-18T04:37:43;2.10;99.90
316;DHT22;14128;48.686;9.738;2023-05-18T04:40:10;2.10;99.90
316;DHT22;14128;48.686;9.738;2023-05-18T04:42:38;2.20;99.90
316;DHT22;14128;48.686;9.738;2023-05-18T04:45:10;2.20;99.90
316;DHT22;14128;48.686;9.738;2023-05-18T04:47:41;2.30;99.90
316;DHT22;14128;48.686;9.738;2023-05-18T04:50:12;2.30;99.90
316;DHT22;14128;48.686;9.738;2023-05-18T04:52:40;2.40;99.90
316;DHT22;14128;48.686;9.738;2023-05-18T04:55:13;2.40;99.90
316;DHT22;14128;48.686;9.738;2023-05-18T04:57:40;2.50;99.90
316;DHT22;14128;48.686;9.738;2023-05-18T05:00:10;2.60;99.90
316;DHT22;14128;48.686;9.738;2023-05-18T05:02:37;2.70;99.90
316;DHT22;14128;48.686;9.738;2023-05-18T05:05:05;2.80;99.90
316;DHT22;14128;48.686;9.738;2023-05-18T05:07:32;2.80;99.90
316;DHT22;14128;48.686;9.738;2023-05-18T05:10:00;3.00;99.90
316;DHT22;14128;48.686;9.738;2023-05-18T05:12:26;3.10;99.90
316;DHT22;14128;48.686;9.738;2023-05-18T05:14:53;3.30;99.90
316;DHT22;14128;48.686;9.738;2023-05-18T05:17:21;3.40;99.90
316;DHT22;14128;48.686;9.738;2023-05-18T05:19:48;3.60;99.90
316;DHT22;14128;48.686;9.738;2023-05-18T05:22:15;3.70;99.90
316;DHT22;14128;48.686;9.738;2023-05-18T05:24:42;3.70;99.90
316;DHT22;14128;48.686;9.738;2023-05-18T05:27:11;3.80;99.90
316;DHT22;14128;48.686;9.738;2023-05-18T05:29:38;3.90;99.90
316;DHT22;14128;48.686;9.738;2023-05-18T05:32:06;4.00;99.90
316;DHT22;14128;48.686;9.738;2023-05-18T05:34:35;4.20;99.90
316;DHT22;14128;48.686;9.738;2023-05-18T05:37:02;4.40;99.90
316;DHT22;14128;48.686;9.738;2023-05-18T05:39:29;4.50;99.90
316;DHT22;14128;48.686;9.738;2023-05-18T05:41:56;4.60;99.90
316;DHT22;14128;48.686;9.738;2023-05-18T05:44:24;4.80;99.90
316;DHT22;14128;48.686;9.738;2023-05-18T05:46:51;4.90;99.90
316;DHT22;14128;48.686;9.738;2023-05-18T05:49:18;5.10;99.90
316;DHT22;14128;48.686;9.738;2023-05-18T05:51:45;5.20;99.90
316;DHT22;14128;48.686;9.738;2023-05-18T05:54:11;5.40;99.90
316;DHT22;14128;48.686;9.738;2023-05-18T05:56:38;5.50;99.90
316;DHT22;14128;48.686;9.738;2023-05-18T05:59:05;5.70;99.90
316;DHT22;14128;48.686;9.738;2023-05-18T06:01:33;5.90;99.90
316;DHT22;14128;48.686;9.738;2023-05-18T06:04:00;6.00;99.90
316;DHT22;14128;48.686;9.738;2023-05-18T06:06:27;6.30;99.90
316;DHT22;14128;48.686;9.738;2023-05-18T06:08:54;6.40;99.90
316;DHT22;14128;48.686;9.738;2023-05-18T06:11:20;6.60;99.90
316;DHT22;14128;48.686;9.738;2023-05-18T06:13:48;6.70;99.90
316;DHT22;14128;48.686;9.738;2023-05-18T06:16:16;6.80;99.90
316;DHT22;14128;48.686;9.738;2023-05-18T06:18:44;7.10;99.90
316;DHT22;14128;48.686;9.738;2023-05-18T06:21:12;7.30;99.90
316;DHT22;14128;48.686;9.738;2023-05-18T06:23:39;7.60;99.90
316;DHT22;14128;48.686;9.738;2023-05-18T06:26:06;7.80;99.90
316;DHT22;14128;48.686;9.738;2023-05-18T06:28:33;8.00;99.90
316;DHT22;14128;48.686;9.738;2023-05-18T06:31:00;8.30;99.90
316;DHT22;14128;48.686;9.738;2023-05-18T06:33:26;8.40;99.90
316;DHT22;14128;48.686;9.738;2023-05-18T06:35:55;8.60;1.40
316;DHT22;14128;48.686;9.738;2023-05-18T06:38:21;8.70;1.40
316;DHT22;14128;48.686;9.738;2023-05-18T06:40:48;8.80;99.90
316;DHT22;14128;48.686;9.738;2023-05-18T06:43:15;9.00;1.40
316;DHT22;14128;48.686;9.738;2023-05-18T06:45:42;9.10;1.40
316;DHT22;14128;48.686;9.738;2023-05-18T06:48:09;9.20;99.90
316;DHT22;14128;48.686;9.738;2023-05-18T06:50:35;9.40;1.40
316;DHT22;14128;48.686;9.738;2023-05-18T06:53:03;9.30;1.40
316;DHT22;14128;48.686;9.738;2023-05-18T06:55:30;9.50;1.40
316;DHT22;14128;48.686;9.738;2023-05-18T06:57:57;9.50;1.40
316;DHT22;14128;48.686;9.738;2023-05-18T07:00:24;9.50;1.40
316;DHT22;14128;48.686;9.738;2023-05-18T07:02:51;9.60;99.90
316;DHT22;14128;48.686;9.738;2023-05-18T07:05:18;9.90;1.40
316;DHT22;14128;48.686;9.738;2023-05-18T07:07:45;10.00;1.40
316;DHT22;14128;48.686;9.738;2023-05-18T07:10:13;10.20;1.40
316;DHT22;14128;48.686;9.738;2023-05-18T07:12:40;10.20;1.40
316;DHT22;14128;48.686;9.738;2023-05-18T07:15:07;10.40;99.90
316;DHT22;14128;48.686;9.738;2023-05-18T07:17:36;10.50;99.90
316;DHT22;14128;48.686;9.738;2023-05-18T07:20:03;10.70;1.40
316;DHT22;14128;48.686;9.738;2023-05-18T07:22:31;11.00;99.90
316;DHT22;14128;48.686;9.738;2023-05-18T07:24:58;11.10;99.90
316;DHT22;14128;48.686;9.738;2023-05-18T07:27:26;11.30;99.90
316;DHT22;14128;48.686;9.738;2023-05-18T07:29:53;11.50;1.40
316;DHT22;14128;48.686;9.738;2023-05-18T07:32:20;11.60;1.40
316;DHT22;14128;48.686;9.738;2023-05-18T07:34:47;11.80;1.40
316;DHT22;14128;48.686;9.738;2023-05-18T07:37:14;11.90;1.40
316;DHT22;14128;48.686;9.738;2023-05-18T07:39:41;12.00;1.40
316;DHT22;14128;48.686;9.738;2023-05-18T07:42:08;12.10;1.40
316;DHT22;14128;48.686;9.738;2023-05-18T07:44:37;12.20;1.40
316;DHT22;14128;48.686;9.738;2023-05-18T07:47:04;12.30;1.40
316;DHT22;14128;48.686;9.738;2023-05-18T07:49:30;12.40;1.40
316;DHT22;14128;48.686;9.738;2023-05-18T07:51:57;12.40;1.40
316;DHT22;14128;48.686;9.738;2023-05-18T07:54:25;12.50;99.90
316;DHT22;14128;48.686;9.738;2023-05-18T07:56:52;12.70;1.40
316;DHT22;14128;48.686;9.738;2023-05-18T07:59:19;12.80;1.40
316;DHT22;14128;48.686;9.738;2023-05-18T08:01:47;12.90;1.40
316;DHT22;14128;48.686;9.738;2023-05-18T08:04:14;13.00;1.40
316;DHT22;14128;48.686;9.738;2023-05-18T08:06:40;13.00;1.40
316;DHT22;14128;48.686;9.738;2023-05-18T08:09:07;13.20;99.90
316;DHT22;14128;48.686;9.738;2023-05-18T08:11:35;13.30;99.90
316;DHT22;14128;48.686;9.738;2023-05-18T08:14:02;13.40;99.90
316;DHT22;14128;48.686;9.738;2023-05-18T08:16:29;13.60;99.90
316;DHT22;14128;48.686;9.738;2023-05-18T08:19:02;13.70;99.90
316;DHT22;14128;48.686;9.738;2023-05-18T08:21:29;13.90;99.90
316;DHT22;14128;48.686;9.738;2023-05-18T08:23:57;14.00;99.90
316;DHT22;14128;48.686;9.738;2023-05-18T08:26:24;14.10;99.90
316;DHT22;14128;48.686;9.738;2023-05-18T08:28:51;14.20;99.90
316;DHT22;14128;48.686;9.738;2023-05-18T08:31:18;14.30;99.90
316;DHT22;14128;48.686;9.738;2023-05-18T08:33:45;14.40;47.40
316;DHT22;14128;48.686;9.738;2023-05-18T08:36:14;14.50;1.00
316;DHT22;14128;48.686;9.738;2023-05-18T08:38:41;14.50;99.90
316;DHT22;14128;48.686;9.738;2023-05-18T08:41:14;14.50;99.90
316;DHT22;14128;48.686;9.738;2023-05-18T08:43:45;14.60;99.90
316;DHT22;14128;48.686;9.738;2023-05-18T08:46:19;14.90;99.90
316;DHT22;14128;48.686;9.738;2023-05-18T08:48:51;15.10;99.90
316;DHT22;14128;48.686;9.738;2023-05-18T08:51:20;15.30;99.90
316;DHT22;14128;48.686;9.738;2023-05-18T08:53:51;15.40;99.90
316;DHT22;14128;48.686;9.738;2023-05-18T08:56:21;15.50;99.90
316;DHT22;14128;48.686;9.738;2023-05-18T08:58:50;15.50;99.90
316;DHT22;14128;48.686;9.738;2023-05-18T09:01:17;15.50;99.90
316;DHT22;14128;48.686;9.738;2023-05-18T09:03:45;15.60;99.90
316;DHT22;14128;48.686;9.738;2023-05-18T09:06:13;15.80;99.90
316;DHT22;14128;48.686;9.738;2023-05-18T09:08:42;15.80;99.90
316;DHT22;14128;48.686;9.738;2023-05-18T09:11:12;15.70;99.90
316;DHT22;14128;48.686;9.738;2023-05-18T09:13:39;15.80;99.90
316;DHT22;14128;48.686;9.738;2023-05-18T09:16:06;15.80;99.90
316;DHT22;14128;48.686;9.738;2023-05-18T09:18:33;15.80;99.90
316;DHT22;14128;48.686;9.738;2023-05-18T09:21:00;15.90;99.90
316;DHT22;14128;48.686;9.738;2023-05-18T09:23:27;15.80;99.90
316;DHT22;14128;48.686;9.738;2023-05-18T09:25:55;15.80;99.90
316;DHT22;14128;48.686;9.738;2023-05-18T09:28:31;15.90;99.90
316;DHT22;14128;48.686;9.738;2023-05-18T09:30:58;16.10;99.90
316;DHT22;14128;48.686;9.738;2023-05-18T09:33:25;16.20;99.90
316;DHT22;14128;48.686;9.738;2023-05-18T09:35:58;16.50;99.90
316;DHT22;14128;48.686;9.738;2023-05-18T09:38:26;17.00;99.90
316;DHT22;14128;48.686;9.738;2023-05-18T09:40:54;17.30;99.90
316;DHT22;14128;48.686;9.738;2023-05-18T09:43:21;17.50;99.90
316;DHT22;14128;48.686;9.738;2023-05-18T09:45:48;17.70;99.90
316;DHT22;14128;48.686;9.738;2023-05-18T09:48:15;18.00;99.90
316;DHT22;14128;48.686;9.738;2023-05-18T09:50:43;18.20;99.90
316;DHT22;14128;48.686;9.738;2023-05-18T09:53:10;18.10;99.90
316;DHT22;14128;48.686;9.738;2023-05-18T09:55:44;18.10;99.90
316;DHT22;14128;48.686;9.738;2023-05-18T09:58:12;18.10;99.90
316;DHT22;14128;48.686;9.738;2023-05-18T10:00:41;18.10;99.90
316;DHT22;14128;48.686;9.738;2023-05-18T10:03:19;18.20;99.90
316;DHT22;14128;48.686;9.738;2023-05-18T10:05:47;18.10;99.90
316;DHT22;14128;48.686;9.738;2023-05-18T10:08:14;18.10;99.90
316;DHT22;14128;48.686;9.738;2023-05-18T10:10:43;17.90;99.90
316;DHT22;14128;48.686;9.738;2023-05-18T10:13:16;17.80;99.90
316;DHT22;14128;48.686;9.738;2023-05-18T10:15:49;17.80;99.90
316;DHT22;14128;48.686;9.738;2023-05-18T10:18:21;17.60;99.90
316;DHT22;14128;48.686;9.738;2023-05-18T10:20:49;17.60;99.90
316;DHT22;14128;48.686;9.738;2023-05-18T10:23:17;17.60;99.90
316;DHT22;14128;48.686;9.738;2023-05-18T10:25:46;17.60;99.90
316;DHT22;14128;48.686;9.738;2023-05-18T10:28:18;17.80;99.90
316;DHT22;14128;48.686;9.738;2023-05-18T10:30:52;17.90;99.90
316;DHT22;14128;48.686;9.738;2023-05-18T10:33:21;17.80;99.90
316;DHT22;14128;48.686;9.738;2023-05-18T10:35:48;17.70;99.90
316;DHT22;14128;48.686;9.738;2023-05-18T10:38:19;17.80;99.90
316;DHT22;14128;48.686;9.738;2023-05-18T10:40:48;18.10;99.90
316;DHT22;14128;48.686;9.738;2023-05-18T10:43:19;18.20;99.90
316;DHT22;14128;48.686;9.738;2023-05-18T10:45:52;18.80;99.90
316;DHT22;14128;48.686;9.738;2023-05-18T10:48:19;19.30;99.90
316;DHT22;14128;48.686;9.738;2023-05-18T10:50:47;19.20;99.90
316;DHT22;14128;48.686;9.738;2023-05-18T10:53:16;19.40;99.90
316;DHT22;14128;48.686;9.738;2023-05-18T10:55:44;20.20;1.00
316;DHT22;14128;48.686;9.738;2023-05-18T10:58:13;20.70;1.00
316;DHT22;14128;48.686;9.738;2023-05-18T11:00:43;21.00;1.00
316;DHT22;14128;48.686;9.738;2023-05-18T11:03:12;21.50;99.90
316;DHT22;14128;48.686;9.738;2023-05-18T11:05:40;21.80;99.90
316;DHT22;14128;48.686;9.738;2023-05-18T11:08:08;22.20;99.90
316;DHT22;14128;48.686;9.738;2023-05-18T11:10:39;22.20;1.00
316;DHT22;14128;48.686;9.738;2023-05-18T11:13:07;22.20;1.00
316;DHT22;14128;48.686;9.738;2023-05-18T11:16:02;22.40;99.90
316;DHT22;14128;48.686;9.738;2023-05-18T11:18:38;22.20;99.90
316;DHT22;14128;48.686;9.738;2023-05-18T11:21:29;22.50;1.40
316;DHT22;14128;48.686;9.738;2023-05-18T11:24:22;22.40;99.90
316;DHT22;14128;48.686;9.738;2023-05-18T11:26:51;22.80;99.90
316;DHT22;14128;48.686;9.738;2023-05-18T11:29:20;23.00;99.90
316;DHT22;14128;48.686;9.738;2023-05-18T11:31:50;22.90;99.90
316;DHT22;14128;48.686;9.738;2023-05-18T11:34:40;22.90;1.40
316;DHT22;14128;48.686;9.738;2023-05-18T11:37:12;23.40;99.90
316;DHT22;14128;48.686;9.738;2023-05-18T11:39:39;23.50;24.90
316;DHT22;14128;48.686;9.738;2023-05-18T11:42:08;23.80;1.40
316;DHT22;14128;48.686;9.738;2023-05-18T11:44:35;24.00;99.90
316;DHT22;14128;48.686;9.738;2023-05-18T11:47:07;23.90;99.90
316;DHT22;14128;48.686;9.738;2023-05-18T11:49:42;23.30;1.40
316;DHT22;14128;48.686;9.738;2023-05-18T11:52:15;22.60;99.90
316;DHT22;14128;48.686;9.738;2023-05-18T11:54:44;22.00;99.90
316;DHT22;14128;48.686;9.738;2023-05-18T11:57:13;22.40;1.40
316;DHT22;14128;48.686;9.738;2023-05-18T11:59:42;23.10;99.90
316;DHT22;14128;48.686;9.738;2023-05-18T12:02:12;23.60;99.90
316;DHT22;14128;48.686;9.738;2023-05-18T12:04:44;23.60;1.40
316;DHT22;14128;48.686;9.738;2023-05-18T12:07:11;23.80;99.90
316;DHT22;14128;48.686;9.738;2023-05-18T12:09:40;24.10;99.90
316;DHT22;14128;48.686;9.738;2023-05-18T12:12:08;24.30;99.90
316;DHT22;14128;48.686;9.738;2023-05-18T12:14:37;24.50;99.90
316;DHT22;14128;48.686;9.738;2023-05-18T12:17:04;24.60;99.90
316;DHT22;14128;48.686;9.738;2023-05-18T12:19:40;24.90;99.90
316;DHT22;14128;48.686;9.738;2023-05-18T12:22:07;25.20;99.90
316;DHT22;14128;48.686;9.738;2023-05-18T12:24:36;25.40;1.40
316;DHT22;14128;48.686;9.738;2023-05-18T12:27:04;25.20;1.40
316;DHT22;14128;48.686;9.738;2023-05-18T12:29:31;25.50;99.90
316;DHT22;14128;48.686;9.738;2023-05-18T12:31:58;25.80;99.90
316;DHT22;14128;48.686;9.738;2023-05-18T12:34:30;26.40;99.90
316;DHT22;14128;48.686;9.738;2023-05-18T12:36:58;26.40;99.90
316;DHT22;14128;48.686;9.738;2023-05-18T12:39:25;25.40;99.90
316;DHT22;14128;48.686;9.738;2023-05-18T12:41:52;24.70;99.90
316;DHT22;14128;48.686;9.738;2023-05-18T12:44:20;24.40;99.90
316;DHT22;14128;48.686;9.738;2023-05-18T12:46:47;24.70;99.90
316;DHT22;14128;48.686;9.738;2023-05-18T12:49:17;25.80;99.90
316;DHT22;14128;48.686;9.738;2023-05-18T12:51:44;26.70;99.90
316;DHT22;14128;48.686;9.738;2023-05-18T12:54:12;27.30;99.90
316;DHT22;14128;48.686;9.738;2023-05-18T12:56:50;27.10;99.90
316;DHT22;14128;48.686;9.738;2023-05-18T12:59:17;27.60;99.90
316;DHT22;14128;48.686;9.738;2023-05-18T13:01:45;28.50;1.40
316;DHT22;14128;48.686;9.738;2023-05-18T13:04:12;29.00;99.90
316;DHT22;14128;48.686;9.738;2023-05-18T13:06:39;29.30;99.90
316;DHT22;14128;48.686;9.738;2023-05-18T13:09:07;29.20;99.90
316;DHT22;14128;48.686;9.738;2023-05-18T13:11:35;28.20;99.90
316;DHT22;14128;48.686;9.738;2023-05-18T13:14:03;26.70;99.90
316;DHT22;14128;48.686;9.738;2023-05-18T13:16:31;25.70;1.00
316;DHT22;14128;48.686;9.738;2023-05-18T13:19:00;25.30;99.90
316;DHT22;14128;48.686;9.738;2023-05-18T13:21:27;24.80;99.90
316;DHT22;14128;48.686;9.738;2023-05-18T13:23:54;23.80;1.40
316;DHT22;14128;48.686;9.738;2023-05-18T13:26:21;23.90;1.40
316;DHT22;14128;48.686;9.738;2023-05-18T13:28:51;24.50;99.90
316;DHT22;14128;48.686;9.738;2023-05-18T13:31:18;26.20;99.90
316;DHT22;14128;48.686;9.738;2023-05-18T13:33:45;26.50;99.90
316;DHT22;14128;48.686;9.738;2023-05-18T13:36:13;25.40;99.90
316;DHT22;14128;48.686;9.738;2023-05-18T13:38:40;25.20;99.90
316;DHT22;14128;48.686;9.738;2023-05-18T13:41:08;24.60;1.40
316;DHT22;14128;48.686;9.738;2023-05-18T13:43:36;25.30;99.90
316;DHT22;14128;48.686;9.738;2023-05-18T13:46:04;27.10;99.90
316;DHT22;14128;48.686;9.738;2023-05-18T13:48:31;28.30;99.90
316;DHT22;14128;48.686;9.738;2023-05-18T13:50:57;27.80;99.90
316;DHT22;14128;48.686;9.738;2023-05-18T13:53:25;30.10;1.40
316;DHT22;14128;48.686;9.738;2023-05-18T13:55:52;30.80;99.90
316;DHT22;14128;48.686;9.738;2023-05-18T13:58:18;32.80;99.90
316;DHT22;14128;48.686;9.738;2023-05-18T14:00:45;33.10;99.90
316;DHT22;14128;48.686;9.738;2023-05-18T14:03:13;30.90;99.90
316;DHT22;14128;48.686;9.738;2023-05-18T14:05:41;29.30;1.40
316;DHT22;14128;48.686;9.738;2023-05-18T14:08:08;27.60;99.90
316;DHT22;14128;48.686;9.738;2023-05-18T14:10:35;26.10;1.40
316;DHT22;14128;48.686;9.738;2023-05-18T14:13:02;24.80;99.90
316;DHT22;14128;48.686;9.738;2023-05-18T14:15:29;23.70;1.40
316;DHT22;14128;48.686;9.738;2023-05-18T14:17:55;23.10;99.90
316;DHT22;14128;48.686;9.738;2023-05-18T14:20:24;22.60;99.90
316;DHT22;14128;48.686;9.738;2023-05-18T14:22:51;22.40;1.40
316;DHT22;14128;48.686;9.738;2023-05-18T14:25:17;22.60;99.90
316;DHT22;14128;48.686;9.738;2023-05-18T14:27:44;22.40;1.40
316;DHT22;14128;48.686;9.738;2023-05-18T14:30:11;22.20;99.90
316;DHT22;14128;48.686;9.738;2023-05-18T14:32:38;22.00;99.90
316;DHT22;14128;48.686;9.738;2023-05-18T14:35:06;22.00;99.90
316;DHT22;14128;48.686;9.738;2023-05-18T14:37:34;21.90;99.90
316;DHT22;14128;48.686;9.738;2023-05-18T14:40:01;22.20;1.40
316;DHT22;14128;48.686;9.738;2023-05-18T14:42:28;22.40;99.90
316;DHT22;14128;48.686;9.738;2023-05-18T14:44:55;22.50;1.40
316;DHT22;14128;48.686;9.738;2023-05-18T14:47:22;22.30;99.90
316;DHT22;14128;48.686;9.738;2023-05-18T14:49:48;22.00;1.40
316;DHT22;14128;48.686;9.738;2023-05-18T14:52:15;21.90;99.90
316;DHT22;14128;48.686;9.738;2023-05-18T14:54:43;22.10;1.40
316;DHT22;14128;48.686;9.738;2023-05-18T14:57:12;22.10;1.40
316;DHT22;14128;48.686;9.738;2023-05-18T14:59:38;21.70;1.40
316;DHT22;14128;48.686;9.738;2023-05-18T15:02:05;21.30;99.90
316;DHT22;14128;48.686;9.738;2023-05-18T15:04:33;20.90;99.90
316;DHT22;14128;48.686;9.738;2023-05-18T15:07:00;20.70;1.40
316;DHT22;14128;48.686;9.738;2023-05-18T15:09:27;20.60;1.40
316;DHT22;14128;48.686;9.738;2023-05-18T15:11:55;20.40;99.90
316;DHT22;14128;48.686;9.738;2023-05-18T15:14:22;20.10;99.90
316;DHT22;14128;48.686;9.738;2023-05-18T15:16:49;20.00;99.90
316;DHT22;14128;48.686;9.738;2023-05-18T15:19:16;20.00;99.90
316;DHT22;14128;48.686;9.738;2023-05-18T15:21:43;20.00;1.40
316;DHT22;14128;48.686;9.738;2023-05-18T15:24:09;20.00;1.40
316;DHT22;14128;48.686;9.738;2023-05-18T15:26:37;20.10;99.90
316;DHT22;14128;48.686;9.738;2023-05-18T15:29:05;19.80;1.40
316;DHT22;14128;48.686;9.738;2023-05-18T15:31:32;19.60;1.40
316;DHT22;14128;48.686;9.738;2023-05-18T15:34:01;19.30;1.40
316;DHT22;14128;48.686;9.738;2023-05-18T15:36:28;18.90;1.40
316;DHT22;14128;48.686;9.738;2023-05-18T15:38:56;18.80;1.40
316;DHT22;14128;48.686;9.738;2023-05-18T15:41:23;18.70;1.40
316;DHT22;14128;48.686;9.738;2023-05-18T15:43:50;18.70;99.90
316;DHT22;14128;48.686;9.738;2023-05-18T15:46:18;18.50;1.40
316;DHT22;14128;48.686;9.738;2023-05-18T15:48:45;18.40;99.90
316;DHT22;14128;48.686;9.738;2023-05-18T15:51:12;18.40;99.90
316;DHT22;14128;48.686;9.738;2023-05-18T15:53:39;18.30;99.90
316;DHT22;14128;48.686;9.738;2023-05-18T15:56:06;18.30;1.40
316;DHT22;14128;48.686;9.738;2023-05-18T15:58:32;18.30;1.40
316;DHT22;14128;48.686;9.738;2023-05-18T16:00:59;18.10;99.90
316;DHT22;14128;48.686;9.738;2023-05-18T16:03:27;18.00;99.90
316;DHT22;14128;48.686;9.738;2023-05-18T16:05:54;17.80;99.90
316;DHT22;14128;48.686;9.738;2023-05-18T16:08:24;17.60;99.90
316;DHT22;14128;48.686;9.738;2023-05-18T16:10:51;17.30;99.90
316;DHT22;14128;48.686;9.738;2023-05-18T16:13:18;17.20;99.90
316;DHT22;14128;48.686;9.738;2023-05-18T16:15:47;17.10;1.40
316;DHT22;14128;48.686;9.738;2023-05-18T16:18:14;17.10;99.90